Annabella, Utah
Current Conditions -  °F | °C
As of 1:55 PM on Saturday 22 Nov 2014 (Local Time) from KDTA Reporting Station
Broken Clouds Broken Clouds  
Wind Chill: 13°   Ceiling: 11000
Heat Index: 13°   Visibility: 7mi
Dew Point: -4°   Wind: 31mph
Humidity: 31%   Direction: 200°SSW
Pressure: 29.79"   Gusts: 38mph
Location:  38.71°N, 112.06°W
Report Text: KDTA 222055Z AUTO 20027G33KT 7SM SCT080 BKN110 13/M04 A2979 RMK AO1 T01331036
Loading
Personal Weather Stations






























Interactive Weather Map New forecast layout! Learn more

10-Day Weather Forecast

Advertisements
Track Severe Weather on mobile